createdAt,value
2018-07-10T00:02:24.765Z,59.24
2018-07-10T00:07:20.887Z,59.21
2018-07-10T00:10:02.704Z,59.41
2018-07-10T00:12:30.764Z,59.93
2018-07-10T00:14:58.900Z,59.76
2018-07-10T00:17:26.972Z,59.67
2018-07-10T00:19:55.032Z,58.84
2018-07-10T00:22:23.103Z,58.52
2018-07-10T00:24:51.193Z,59.05
2018-07-10T00:27:19.272Z,59.74
2018-07-10T00:29:47.348Z,59.23
2018-07-10T00:32:16.324Z,59.36
2018-07-10T00:34:44.405Z,59.83
2018-07-10T00:37:12.468Z,59.87
2018-07-10T00:39:40.560Z,59.97
2018-07-10T00:42:08.652Z,59.60
2018-07-10T00:44:36.727Z,60.17
2018-07-10T00:47:04.802Z,60.22
2018-07-10T00:49:32.886Z,59.58
2018-07-10T00:52:00.938Z,61.43
2018-07-10T00:54:29.031Z,61.07
2018-07-10T00:56:57.102Z,60.86
2018-07-10T00:59:25.185Z,60.77
2018-07-10T01:01:55.435Z,61.50
2018-07-10T01:04:23.632Z,60.26
2018-07-10T01:06:51.707Z,61.76
2018-07-10T01:09:19.787Z,60.86
2018-07-10T01:11:47.864Z,60.61
2018-07-10T01:14:15.920Z,61.54
2018-07-10T01:16:43.983Z,61.02
2018-07-10T01:19:14.636Z,61.34
2018-07-10T01:21:44.047Z,61.24
2018-07-10T01:24:12.111Z,62.33
2018-07-10T01:26:41.523Z,62.78
2018-07-10T01:29:19.457Z,62.70
2018-07-10T01:31:55.192Z,63.80
2018-07-10T01:34:23.699Z,64.05
2018-07-10T01:36:53.089Z,63.95
2018-07-10T01:39:21.164Z,64.17
2018-07-10T01:41:49.296Z,64.70
2018-07-10T01:44:18.327Z,65.03
2018-07-10T01:46:46.389Z,63.63
2018-07-10T01:49:14.555Z,64.42
2018-07-10T01:51:42.650Z,64.84
2018-07-10T01:54:10.720Z,65.30
2018-07-10T01:56:38.882Z,65.49
2018-07-10T01:59:06.872Z,65.94
2018-07-10T02:01:35.016Z,65.69
2018-07-10T02:04:03.102Z,64.85
2018-07-10T02:06:31.401Z,64.34
2018-07-10T02:08:59.852Z,64.91
2018-07-10T02:11:27.912Z,64.90
2018-07-10T02:13:55.994Z,65.00
2018-07-10T02:16:24.047Z,65.50
2018-07-10T02:18:52.267Z,65.45
2018-07-10T02:21:20.492Z,66.06
2018-07-10T02:23:48.526Z,66.37
2018-07-10T02:26:22.363Z,65.81
2018-07-10T02:28:51.851Z,67.35
2018-07-10T02:31:20.612Z,67.19
2018-07-10T02:33:48.880Z,67.04
2018-07-10T02:36:18.073Z,66.92
2018-07-10T02:38:48.443Z,66.51
2018-07-10T02:41:21.688Z,66.55
2018-07-10T02:43:56.004Z,66.68
2018-07-10T02:46:25.146Z,67.15
2018-07-10T02:48:54.505Z,66.00
2018-07-10T02:51:22.619Z,66.49
2018-07-10T02:53:50.711Z,66.05
2018-07-10T02:56:20.641Z,65.58
2018-07-10T02:58:49.825Z,66.85
2018-07-10T03:01:18.325Z,66.47
2018-07-10T03:03:46.385Z,66.98
2018-07-10T03:06:14.731Z,68.12
2018-07-10T03:08:43.088Z,67.59
2018-07-10T03:11:13.129Z,68.84
2018-07-10T03:13:41.527Z,68.76
2018-07-10T03:16:09.600Z,68.35
2018-07-10T03:18:37.672Z,68.36
2018-07-10T03:21:05.731Z,67.95
2018-07-10T03:23:33.803Z,67.23
2018-07-10T03:26:02.063Z,67.05
2018-07-10T03:28:30.190Z,67.99
2018-07-10T03:30:58.542Z,67.95
2018-07-10T03:33:26.614Z,68.36
2018-07-10T03:35:54.680Z,69.22
2018-07-10T03:38:23.484Z,68.99
2018-07-10T03:40:52.188Z,69.22
2018-07-10T03:43:20.254Z,69.66
2018-07-10T03:45:49.167Z,69.26
2018-07-10T03:48:17.573Z,69.86
2018-07-10T03:50:45.643Z,69.32
2018-07-10T03:53:13.703Z,68.36
2018-07-10T03:55:41.767Z,69.00
2018-07-10T03:58:11.043Z,68.59
2018-07-10T04:00:39.382Z,68.42
2018-07-10T04:03:07.672Z,68.37
2018-07-10T04:05:35.765Z,68.23
2018-07-10T04:08:05.631Z,66.97
2018-07-10T04:10:38.212Z,67.59
2018-07-10T04:13:22.275Z,67.46
2018-07-10T04:15:53.703Z,67.58
2018-07-10T04:18:22.872Z,67.60
2018-07-10T04:20:55.884Z,67.82
2018-07-10T04:23:26.108Z,67.79
2018-07-10T04:25:55.355Z,66.73
2018-07-10T04:28:28.917Z,67.86
2018-07-10T04:31:06.815Z,67.38
2018-07-10T04:33:34.890Z,66.95
2018-07-10T04:38:44.000Z,67.98
2018-07-10T04:41:19.284Z,67.29
2018-07-10T04:43:53.999Z,67.48
2018-07-10T04:46:25.777Z,67.70
2018-07-10T04:49:07.478Z,66.47
2018-07-10T04:51:39.970Z,67.12
2018-07-10T04:55:14.051Z,68.17
2018-07-10T04:57:55.208Z,68.37
2018-07-10T05:00:23.303Z,67.64
2018-07-10T05:02:52.196Z,68.41
2018-07-10T05:05:20.286Z,68.26
2018-07-10T05:07:48.384Z,66.83
2018-07-10T05:10:18.124Z,68.40
2018-07-10T05:12:46.403Z,67.18
2018-07-10T05:15:14.808Z,67.64
2018-07-10T05:17:44.111Z,67.31
2018-07-10T05:20:12.255Z,66.46
2018-07-10T05:22:42.704Z,65.91
2018-07-10T05:25:10.810Z,66.67
2018-07-10T05:27:38.884Z,65.91
2018-07-10T05:30:06.984Z,65.82
2018-07-10T05:32:37.924Z,66.09
2018-07-10T05:35:05.981Z,65.67
2018-07-10T05:37:38.621Z,65.36
2018-07-10T05:40:10.077Z,65.31
2018-07-10T05:42:48.994Z,65.88
2018-07-10T05:45:20.664Z,66.13
2018-07-10T05:47:53.952Z,66.12
2018-07-10T05:50:22.052Z,64.87
2018-07-10T05:52:50.349Z,65.76
2018-07-10T05:55:23.880Z,66.52
2018-07-10T05:57:52.589Z,66.44
2018-07-10T06:00:21.779Z,67.13
2018-07-10T06:02:49.855Z,66.73
2018-07-10T06:05:17.944Z,67.49
2018-07-10T06:07:48.081Z,67.22
2018-07-10T06:10:16.163Z,67.69
2018-07-10T06:12:44.352Z,68.10
2018-07-10T06:15:14.330Z,67.83
2018-07-10T06:17:42.775Z,68.35
2018-07-10T06:20:10.853Z,69.04
2018-07-10T06:22:39.228Z,70.18
2018-07-10T06:28:09.711Z,70.92
2018-07-10T06:30:39.435Z,72.31
2018-07-10T06:33:25.221Z,73.27
2018-07-10T06:36:07.214Z,72.90
2018-07-10T06:38:39.529Z,72.66
2018-07-10T06:41:08.113Z,73.29
2018-07-10T06:43:47.610Z,74.30
2018-07-10T06:46:16.268Z,73.74
2018-07-10T06:48:45.788Z,74.80
2018-07-10T06:51:16.864Z,73.84
2018-07-10T06:53:47.060Z,73.60
2018-07-10T06:56:24.191Z,74.35
2018-07-10T06:58:52.264Z,74.17
2018-07-10T07:01:20.409Z,74.18
2018-07-10T07:03:48.460Z,74.07
2018-07-10T07:06:16.536Z,73.38
2018-07-10T07:08:44.592Z,73.72
2018-07-10T07:11:12.670Z,73.16
2018-07-10T07:13:40.748Z,72.29
2018-07-10T07:16:08.819Z,72.58
2018-07-10T07:18:36.903Z,72.48
2018-07-10T07:21:04.990Z,72.50
2018-07-10T07:23:33.600Z,71.07
2018-07-10T07:26:01.696Z,71.55
2018-07-10T07:28:30.909Z,70.47
2018-07-10T07:30:59.075Z,69.78
2018-07-10T07:33:27.139Z,69.57
2018-07-10T07:35:55.540Z,67.07
2018-07-10T07:38:23.635Z,67.08
2018-07-10T07:40:52.506Z,65.92
2018-07-10T07:43:20.731Z,64.54
2018-07-10T07:48:24.559Z,63.84
2018-07-10T07:50:52.676Z,61.37
2018-07-10T07:53:20.767Z,61.80
2018-07-10T07:55:49.092Z,64.07
2018-07-10T07:58:17.169Z,61.30
2018-07-10T08:00:45.234Z,61.94
2018-07-10T08:03:13.381Z,62.65
2018-07-10T08:05:41.455Z,63.15
2018-07-10T08:08:09.548Z,63.10
2018-07-10T08:10:37.633Z,60.01
2018-07-10T08:13:05.781Z,59.06
2018-07-10T08:15:37.292Z,59.64
2018-07-10T08:18:05.979Z,59.37
2018-07-10T08:20:34.570Z,60.07
2018-07-10T08:23:03.362Z,59.82
2018-07-10T08:25:31.667Z,57.84
2018-07-10T08:28:00.152Z,60.93
2018-07-10T08:30:28.240Z,66.77
2018-07-10T08:32:56.316Z,66.92
2018-07-10T08:35:24.407Z,67.67
2018-07-10T08:37:52.953Z,67.21
2018-07-10T08:40:21.009Z,67.70
2018-07-10T08:42:49.092Z,68.45
2018-07-10T08:45:17.995Z,66.55
2018-07-10T08:47:46.073Z,66.55
2018-07-10T08:50:14.359Z,64.98
2018-07-10T08:52:42.444Z,65.16
2018-07-10T08:55:10.569Z,65.89
2018-07-10T08:57:38.675Z,65.96
2018-07-10T09:00:07.227Z,65.53
2018-07-10T09:02:35.310Z,65.21
2018-07-10T09:05:03.393Z,65.21
2018-07-10T09:07:31.471Z,65.86
2018-07-10T09:09:59.556Z,64.66
2018-07-10T09:12:27.656Z,65.40
2018-07-10T09:14:55.730Z,64.95
2018-07-10T09:17:23.800Z,65.15
2018-07-10T09:19:51.857Z,64.42
2018-07-10T09:22:19.975Z,62.87
2018-07-10T09:24:54.801Z,62.27
2018-07-10T09:27:23.643Z,61.21
2018-07-10T09:29:51.871Z,60.27
2018-07-10T09:32:26.523Z,60.93
2018-07-10T09:34:56.564Z,59.90
2018-07-10T09:37:30.013Z,60.67
2018-07-10T09:43:06.012Z,61.92
2018-07-10T09:45:36.437Z,61.34
2018-07-10T09:48:05.693Z,60.01
2018-07-10T09:50:33.817Z,60.15
2018-07-10T09:53:02.819Z,58.54
2018-07-10T09:55:31.145Z,58.16
2018-07-10T09:58:00.767Z,58.75
2018-07-10T10:00:34.680Z,58.37
2018-07-10T10:03:03.569Z,60.44
2018-07-10T10:05:40.844Z,60.72
2018-07-10T10:08:09.177Z,59.99
2018-07-10T10:10:37.781Z,59.37
2018-07-10T10:13:06.131Z,60.44
2018-07-10T10:15:35.349Z,59.58
2018-07-10T10:18:06.301Z,58.98
2018-07-10T10:20:37.280Z,58.43
2018-07-10T10:23:06.002Z,59.67
2018-07-10T10:25:37.375Z,61.61
2018-07-10T10:28:08.185Z,59.95
2018-07-10T10:30:37.932Z,60.87
2018-07-10T10:33:06.633Z,61.80
2018-07-10T10:35:35.191Z,61.20
2018-07-10T10:38:04.312Z,65.82
2018-07-10T10:40:38.393Z,66.91
2018-07-10T10:43:10.604Z,70.40
2018-07-10T10:45:41.130Z,71.76
2018-07-10T10:48:10.400Z,67.75
2018-07-10T10:50:39.984Z,67.14
2018-07-10T10:53:09.068Z,66.24
2018-07-10T10:55:37.268Z,65.38
2018-07-10T10:58:06.112Z,63.46
2018-07-10T11:00:35.592Z,61.28
2018-07-10T11:03:04.134Z,59.92
2018-07-10T11:05:33.757Z,59.29
2018-07-10T11:08:02.365Z,59.03
2018-07-10T11:10:30.985Z,58.07
2018-07-10T11:12:59.337Z,56.69
2018-07-10T11:15:27.536Z,57.78
2018-07-10T11:18:02.235Z,54.85
2018-07-10T11:20:44.189Z,54.03
2018-07-10T11:23:17.778Z,53.38
2018-07-10T11:25:47.196Z,53.06
2018-07-10T11:28:15.288Z,52.44
2018-07-10T11:30:43.396Z,52.67
2018-07-10T11:33:12.196Z,54.52
2018-07-10T11:35:41.384Z,55.03
2018-07-10T11:38:11.720Z,56.40
2018-07-10T11:40:42.720Z,55.10
2018-07-10T11:43:12.535Z,55.23
2018-07-10T11:45:42.123Z,53.09
2018-07-10T11:48:10.873Z,53.32
2018-07-10T11:50:39.268Z,52.67
2018-07-10T11:53:07.346Z,53.27
2018-07-10T11:55:36.541Z,51.84
2018-07-10T11:58:07.440Z,52.14
2018-07-10T12:00:35.645Z,52.09
2018-07-10T12:03:05.532Z,51.28
2018-07-10T12:05:35.095Z,53.23
2018-07-10T12:08:03.202Z,53.34
2018-07-10T12:10:32.478Z,53.13
2018-07-10T12:13:00.669Z,51.83
2018-07-10T12:15:28.751Z,50.48
2018-07-10T12:17:57.884Z,48.96
2018-07-10T12:20:30.859Z,50.18
2018-07-10T12:23:00.070Z,48.52
2018-07-10T12:25:31.013Z,49.57
2018-07-10T12:27:59.166Z,48.59
2018-07-10T12:30:28.128Z,49.14
2018-07-10T12:32:56.308Z,50.94
2018-07-10T12:35:24.383Z,49.11
2018-07-10T12:37:52.596Z,48.67
2018-07-10T12:40:20.702Z,49.62
2018-07-10T12:42:48.812Z,50.55
2018-07-10T12:45:16.896Z,48.54
2018-07-10T12:47:44.976Z,49.00
2018-07-10T12:50:13.605Z,49.36
2018-07-10T12:52:42.662Z,49.53
2018-07-10T12:55:11.105Z,48.06
2018-07-10T12:57:42.416Z,49.37
2018-07-10T13:00:10.608Z,48.48
2018-07-10T13:02:43.648Z,48.63
2018-07-10T13:05:13.197Z,49.05
2018-07-10T13:07:41.467Z,48.65
2018-07-10T13:10:09.575Z,46.98
2018-07-10T13:12:37.885Z,47.07
2018-07-10T13:15:06.093Z,46.98
2018-07-10T13:17:35.510Z,46.66
2018-07-10T13:20:05.042Z,47.59
2018-07-10T13:22:33.148Z,46.92
2018-07-10T13:25:01.820Z,45.79
2018-07-10T13:27:29.916Z,46.57
2018-07-10T18:05:57.838Z,41.43
2018-07-10T18:08:26.280Z,40.86
2018-07-10T18:10:55.449Z,42.04
2018-07-10T18:13:23.604Z,42.19
2018-07-10T18:15:52.052Z,42.95
2018-07-10T18:27:07.158Z,44.31
2018-07-10T18:29:35.408Z,43.11
2018-07-10T18:32:03.597Z,43.35
2018-07-10T18:34:31.734Z,44.04
2018-07-10T18:36:59.848Z,43.38
2018-07-10T18:39:28.111Z,42.89
2018-07-10T18:41:57.352Z,43.23
2018-07-10T18:44:25.840Z,43.88
2018-07-10T18:46:53.992Z,44.19
2018-07-10T18:49:22.325Z,43.31
2018-07-10T18:51:50.548Z,44.17
2018-07-10T18:54:28.823Z,44.33
2018-07-10T18:56:58.037Z,45.59
2018-07-10T18:59:29.790Z,45.78
2018-07-10T19:02:01.301Z,45.72
2018-07-10T19:05:04.708Z,47.00
2018-07-10T19:07:34.362Z,45.88
2018-07-10T19:10:02.874Z,47.69
2018-07-10T19:12:30.968Z,47.85
2018-07-10T19:14:59.119Z,48.61
2018-07-10T19:17:30.612Z,49.28
2018-07-10T19:20:02.144Z,50.14
2018-07-10T19:22:37.212Z,47.18
2018-07-10T19:25:06.235Z,47.40
2018-07-10T19:27:34.317Z,47.95
2018-07-10T19:30:07.257Z,49.16
2018-07-10T19:32:35.735Z,48.89
2018-07-10T19:35:03.800Z,49.22
2018-07-10T19:37:33.743Z,49.35
2018-07-10T19:40:01.988Z,48.77
2018-07-10T19:42:31.765Z,49.86
2018-07-10T19:45:01.857Z,52.36
2018-07-10T19:47:31.908Z,51.35
2018-07-10T19:50:08.011Z,51.31
2018-07-10T19:52:36.242Z,51.60
2018-07-10T19:55:04.416Z,51.24
2018-07-10T19:57:48.588Z,52.43
2018-07-10T20:00:17.146Z,52.45
2018-07-10T20:02:47.200Z,53.34
2018-07-10T20:05:16.624Z,53.87
2018-07-10T20:07:50.836Z,54.74
2018-07-10T20:10:39.392Z,55.31
2018-07-10T20:13:10.879Z,55.44
2018-07-10T20:15:49.828Z,55.23
2018-07-10T20:18:49.455Z,55.98
2018-07-10T20:21:26.345Z,56.19
2018-07-10T20:24:05.636Z,57.70
2018-07-10T20:26:42.033Z,56.69
2018-07-10T20:29:18.693Z,58.42
2018-07-10T20:32:02.355Z,57.99
2018-07-10T20:34:44.316Z,59.18
2018-07-10T20:37:27.888Z,57.80
2018-07-10T20:39:57.511Z,58.29
2018-07-10T20:42:31.849Z,59.64
2018-07-10T20:45:06.240Z,59.87
2018-07-10T20:47:44.803Z,59.25
2018-07-10T20:50:18.308Z,59.69
2018-07-10T20:52:52.792Z,60.23
2018-07-10T20:55:22.024Z,60.30
2018-07-10T20:58:00.334Z,61.47
2018-07-10T21:00:31.384Z,61.96
2018-07-10T21:03:16.517Z,62.11
2018-07-10T21:05:48.462Z,62.85
2018-07-10T21:08:29.864Z,62.80
2018-07-10T21:11:05.749Z,62.90
2018-07-10T21:13:43.656Z,62.91
2018-07-10T21:16:25.692Z,63.00
2018-07-10T21:19:02.634Z,63.88
2018-07-10T21:22:00.544Z,62.85
2018-07-10T21:24:37.441Z,64.31
2018-07-10T21:27:13.285Z,63.98
2018-07-10T21:29:49.018Z,63.85
2018-07-10T21:34:36.266Z,64.63
2018-07-10T21:37:13.845Z,65.04
2018-07-10T21:40:54.637Z,63.62
2018-07-10T21:43:32.815Z,64.67
2018-07-10T21:46:45.376Z,63.19
2018-07-10T21:49:51.798Z,64.52
2018-07-10T21:52:20.446Z,64.69
2018-07-10T21:54:49.132Z,65.61
2018-07-10T21:57:19.861Z,66.86
2018-07-10T22:02:43.145Z,66.53
2018-07-10T22:05:11.884Z,68.58
2018-07-10T22:07:40.557Z,66.97
2018-07-10T22:10:09.611Z,66.84
2018-07-10T22:12:43.169Z,66.70
2018-07-10T22:15:12.181Z,67.69
2018-07-10T22:17:41.279Z,67.40
2018-07-10T22:20:09.857Z,69.33
2018-07-10T22:22:38.446Z,69.29
2018-07-10T22:25:08.846Z,68.43
2018-07-10T22:27:40.500Z,69.06
2018-07-10T22:30:17.097Z,69.43
2018-07-10T22:32:51.734Z,70.00
2018-07-10T22:35:20.347Z,70.03
2018-07-10T22:37:49.032Z,69.38
2018-07-10T22:40:18.595Z,69.05
2018-07-10T22:42:47.292Z,68.62
2018-07-10T22:45:17.097Z,69.49
2018-07-10T22:47:45.561Z,68.78
2018-07-10T22:50:17.885Z,68.29
2018-07-10T22:52:54.897Z,68.57
2018-07-10T22:55:28.745Z,67.88
2018-07-10T22:58:05.467Z,68.72
2018-07-10T23:00:36.057Z,68.58
2018-07-10T23:05:56.901Z,68.50
2018-07-10T23:08:35.201Z,68.36
2018-07-10T23:11:04.671Z,68.95
2018-07-10T23:13:34.220Z,70.35
2018-07-10T23:16:02.922Z,70.06
2018-07-10T23:18:31.480Z,69.39
2018-07-10T23:21:00.136Z,69.36
2018-07-10T23:23:28.591Z,69.79
2018-07-10T23:25:57.357Z,70.47
2018-07-10T23:28:27.267Z,69.30
2018-07-10T23:30:57.779Z,70.59
2018-07-10T23:33:26.798Z,70.45
2018-07-10T23:35:59.114Z,70.43
2018-07-10T23:38:38.989Z,71.34
2018-07-10T23:41:17.778Z,71.49
2018-07-10T23:43:47.961Z,72.47
2018-07-10T23:46:52.030Z,71.62
2018-07-10T23:49:20.889Z,70.50
2018-07-10T23:52:00.707Z,71.27
2018-07-10T23:54:29.196Z,69.66
2018-07-10T23:56:58.298Z,69.84
2018-07-10T23:59:26.698Z,70.16
